Time;durP1;ratioP1;P1;durP2;ratioP2;P2;SDS_P1;SDS_P2;PMS_P1;PMS_P2;Temp;Humidity;BMP_temperature;BMP_pressure;BME280_temperature;BME280_humidity;BME280_pressure;Samples;Min_cycle;Max_cycle;Signal;HPM_P1;HPM_P2
2022/12/11 00:02:03;;;;;;;;;25.25;20.50;;;;;3.41;65.06;100885.22;5061631;28;45213;-73
2022/12/11 00:04:29;;;;;;;;;20.75;18.50;;;;;3.36;65.60;100887.94;5058834;28;45463;-73
2022/12/11 00:06:55;;;;;;;;;20.50;20.50;;;;;3.35;65.15;100896.78;5056794;28;45239;-73
2022/12/11 00:09:20;;;;;;;;;33.00;24.00;;;;;3.34;65.44;100880.91;5057073;28;45382;-74
2022/12/11 00:11:46;;;;;;;;;24.00;22.75;;;;;3.35;64.91;100867.66;5056710;28;45398;-73
2022/12/11 00:14:13;;;;;;;;;25.00;23.00;;;;;3.35;65.12;100870.31;5054541;28;45469;-74
2022/12/11 00:16:38;;;;;;;;;23.25;22.00;;;;;3.32;64.78;100867.69;5056739;28;45343;-74
2022/12/11 00:19:06;;;;;;;;;27.75;21.25;;;;;3.23;65.40;100862.50;5056842;28;45394;-74
2022/12/11 00:21:32;;;;;;;;;25.50;24.75;;;;;3.23;65.26;100867.81;5056921;28;45427;-73
2022/12/11 00:23:57;;;;;;;;;19.75;18.25;;;;;3.14;65.59;100867.97;5056875;28;45488;-73
2022/12/11 00:26:23;;;;;;;;;25.25;19.25;;;;;3.11;65.32;100853.88;5056595;28;45603;-73
2022/12/11 00:28:52;;;;;;;;;28.50;19.25;;;;;3.18;65.63;100855.53;5056175;28;45484;-74
2022/12/11 05:32:54;;;;;;;;;8.00;8.00;;;;;1.88;66.87;100732.78;5057757;27;45568;-77
2022/12/11 05:35:20;;;;;;;;;13.75;12.25;;;;;1.98;66.79;100732.69;5055875;28;46148;-78
2022/12/11 05:37:45;;;;;;;;;7.50;6.25;;;;;2.04;66.98;100740.56;5055489;28;45372;-78
2022/12/11 05:40:11;;;;;;;;;17.50;9.00;;;;;1.99;66.42;100740.59;5055838;28;45459;-79
2022/12/11 05:42:37;;;;;;;;;16.00;13.75;;;;;1.93;66.58;100716.00;5037255;28;45912;-78
2022/12/11 05:45:02;;;;;;;;;11.00;11.00;;;;;2.08;66.51;100732.56;5055438;28;46116;-78
2022/12/11 05:47:30;;;;;;;;;9.75;9.75;;;;;2.02;65.83;100716.78;5055228;28;45403;-78
2022/12/11 05:49:55;;;;;;;;;10.75;8.00;;;;;2.13;65.80;100732.50;5037536;28;45367;-77
2022/12/11 05:52:21;;;;;;;;;13.75;7.50;;;;;2.16;66.28;100733.34;5055141;28;45595;-77
2022/12/11 05:54:49;;;;;;;;;11.25;8.50;;;;;2.01;65.72;100691.22;5036953;28;47440;-76
2022/12/11 05:57:14;;;;;;;;;10.25;10.25;;;;;2.26;65.85;100716.47;5054986;28;45382;-79
2022/12/11 05:59:40;;;;;;;;;10.00;7.00;;;;;2.32;66.16;100735.78;5055464;28;45267;-79
2022/12/11 06:02:05;;;;;;;;;13.00;13.00;;;;;2.34;66.27;100728.72;5054844;28;45334;-78
2022/12/11 06:04:30;;;;;;;;;15.25;11.00;;;;;2.29;66.03;100712.94;5055271;28;45423;-78
2022/12/11 06:06:56;;;;;;;;;14.00;11.75;;;;;2.34;66.07;100716.38;5055231;28;45423;-77
2022/12/11 06:09:21;;;;;;;;;13.25;11.75;;;;;2.49;65.26;100741.75;5046587;28;45275;-77
2022/12/11 06:11:46;;;;;;;;;7.75;6.75;;;;;2.26;64.71;100697.09;5034843;28;45418;-77
2022/12/11 06:14:12;;;;;;;;;13.75;8.75;;;;;2.20;65.09;100700.69;5033015;28;45327;-79
2022/12/11 06:16:38;;;;;;;;;14.25;14.00;;;;;2.27;65.00;100733.22;5034892;28;45541;-78
2022/12/11 06:19:03;;;;;;;;;15.00;14.25;;;;;2.22;65.33;100737.69;5035180;28;45886;-78
2022/12/11 06:21:31;;;;;;;;;17.50;11.25;;;;;2.20;65.83;100726.25;5025449;28;46988;-78
2022/12/11 06:23:58;;;;;;;;;13.25;13.25;;;;;2.03;66.42;100707.94;5035128;28;46142;-79
2022/12/11 06:26:24;;;;;;;;;16.50;14.25;;;;;2.06;66.38;100720.25;5034614;28;45800;-79
2022/12/11 06:28:49;;;;;;;;;15.25;14.50;;;;;1.95;66.77;100712.47;5034717;28;45446;-79
2022/12/11 06:31:16;;;;;;;;;18.00;11.25;;;;;1.94;67.19;100710.69;5036391;28;45287;-77
2022/12/11 06:33:41;;;;;;;;;16.75;14.50;;;;;1.94;67.05;100691.31;5049119;28;46197;-80
2022/12/11 06:36:11;;;;;;;;;17.00;17.00;;;;;2.00;66.90;100700.03;5054792;28;45509;-78
2022/12/11 06:38:36;;;;;;;;;24.00;18.00;;;;;2.08;67.23;100716.69;5037011;28;45272;-80
2022/12/11 06:41:06;;;;;;;;;20.00;15.75;;;;;2.04;66.87;100706.19;5054957;28;45189;-77
2022/12/11 06:43:33;;;;;;;;;15.00;15.00;;;;;2.13;66.76;100703.41;5054841;28;46257;-78
2022/12/11 06:45:58;;;;;;;;;18.25;18.25;;;;;2.11;66.43;100687.59;5054755;28;45383;-79
2022/12/11 06:48:24;;;;;;;;;19.50;17.50;;;;;2.13;66.21;100690.19;5036837;28;45571;-78
2022/12/11 06:50:50;;;;;;;;;18.25;15.75;;;;;2.21;66.34;100696.28;5054270;28;45564;-78
2022/12/11 06:53:16;;;;;;;;;17.00;17.00;;;;;2.21;66.49;100696.28;5054767;28;45342;-79
2022/12/11 06:55:42;;;;;;;;;23.50;23.00;;;;;2.02;66.00;100648.03;5054693;28;45445;-80
2022/12/11 06:58:08;;;;;;;;;20.25;15.00;;;;;2.30;65.71;100706.72;5054827;28;45397;-80
2022/12/11 07:00:35;;;;;;;;;25.25;21.00;;;;;2.28;65.90;100692.66;5054712;28;45228;-78
2022/12/11 07:03:01;;;;;;;;;25.50;21.25;;;;;2.25;65.50;100676.81;5036494;28;47119;-79
2022/12/11 07:05:27;;;;;;;;;25.25;21.50;;;;;2.28;65.70;100676.78;5054665;28;45403;-79
2022/12/11 07:07:55;;;;;;;;;30.75;24.75;;;;;2.46;65.50;100702.13;5054909;28;45608;-78
2022/12/11 07:10:22;;;;;;;;;19.00;19.00;;;;;2.51;65.37;100703.78;5054269;28;45327;-76
2022/12/11 07:12:47;;;;;;;;;30.75;26.25;;;;;2.50;65.10;100702.03;5054754;28;46325;-78
2022/12/11 07:15:13;;;;;;;;;32.00;25.25;;;;;2.51;65.09;100700.28;5053294;28;45391;-77
2022/12/11 07:17:38;;;;;;;;;32.50;25.50;;;;;2.43;64.87;100686.28;5055561;28;45422;-79
2022/12/11 07:20:04;;;;;;;;;26.00;21.75;;;;;2.34;65.07;100671.41;5059466;28;45515;-78
2022/12/11 07:22:29;;;;;;;;;37.00;31.67;;;;;2.53;64.82;100709.94;5060911;28;46491;-79
2022/12/11 07:24:55;;;;;;;;;36.25;22.75;;;;;2.50;65.27;100711.75;5061794;28;45272;-79
2022/12/11 07:27:20;;;;;;;;;38.75;35.50;;;;;2.50;64.99;100714.41;5060676;28;45270;-80
2022/12/11 07:29:45;;;;;;;;;36.00;29.67;;;;;2.50;64.66;100714.41;5060250;28;45533;-78
2022/12/11 07:32:11;;;;;;;;;34.00;32.25;;;;;2.48;64.87;100711.75;5062116;28;46125;-79
2022/12/11 07:34:36;;;;;;;;;33.25;28.50;;;;;2.41;65.20;100704.81;5056664;28;45178;-79
2022/12/11 07:37:02;;;;;;;;;38.50;32.75;;;;;2.35;64.98;100691.69;5055308;28;45299;-77
2022/12/11 07:39:27;;;;;;;;;32.50;28.75;;;;;2.51;64.78;100722.31;5053642;28;45634;-78
2022/12/11 07:41:52;;;;;;;;;40.75;32.50;;;;;2.46;64.59;100731.22;5053555;28;45335;-79
2022/12/11 07:44:19;;;;;;;;;49.00;37.00;;;;;2.48;64.91;100726.75;5053726;28;45411;-77
2022/12/11 07:46:44;;;;;;;;;32.33;29.33;;;;;2.50;64.60;100728.50;5054578;28;45504;-79
2022/12/11 07:49:10;;;;;;;;;35.67;29.00;;;;;2.51;65.20;100719.69;5053370;28;45547;-79
2022/12/11 07:51:37;;;;;;;;;42.33;33.00;;;;;2.51;65.27;100714.38;5053608;28;46538;-79
2022/12/11 07:54:06;;;;;;;;;34.67;32.67;;;;;2.52;64.32;100721.44;5053436;28;45473;-79
2022/12/11 07:56:32;;;;;;;;;40.00;26.00;;;;;2.54;64.46;100713.47;5053793;28;45448;-80
2022/12/11 07:58:59;;;;;;;;;30.50;30.50;;;;;2.58;64.28;100723.97;5053549;28;45404;-78
2022/12/11 08:01:27;;;;;;;;;35.00;33.25;;;;;2.54;63.93;100711.72;5036420;28;46429;-76
2022/12/11 08:03:53;;;;;;;;;32.33;28.67;;;;;2.53;63.91;100704.66;5056966;28;45450;-79
2022/12/11 08:06:23;;;;;;;;;40.00;34.67;;;;;2.59;64.29;100711.63;5058250;28;45347;-77
2022/12/11 08:08:49;;;;;;;;;43.33;34.00;;;;;2.58;64.45;100717.81;5051372;28;45954;-74
2022/12/11 08:11:15;;;;;;;;;31.50;31.50;;;;;2.26;63.82;100694.44;5053598;28;45951;-75
2022/12/11 08:13:41;;;;;;;;;38.00;32.25;;;;;2.27;63.49;100720.88;5054726;28;45444;-76
2022/12/11 08:16:09;;;;;;;;;31.33;26.00;;;;;2.04;63.95;100727.34;5036164;28;45525;-72
2022/12/11 08:18:36;;;;;;;;;37.50;27.00;;;;;1.87;64.51;100730.16;5053920;28;45453;-74
2022/12/11 08:21:17;;;;;;;;;28.00;22.00;;;;;1.74;64.96;100725.88;5054957;28;46058;-72
2022/12/11 08:23:43;;;;;;;;;50.00;33.67;;;;;1.65;65.69;100731.25;5055798;28;45537;-71
2022/12/11 08:26:12;;;;;;;;;32.00;28.33;;;;;1.41;65.81;100733.25;5036581;28;45383;-74
2022/12/11 08:28:37;;;;;;;;;31.33;29.33;;;;;1.33;66.14;100732.44;5037095;28;46255;-72
2022/12/11 08:31:08;;;;;;;;;36.67;30.67;;;;;1.06;67.16;100724.75;5053831;28;46035;-73
2022/12/11 08:33:35;;;;;;;;;35.00;30.33;;;;;0.98;67.37;100716.88;5054589;28;45451;-71
2022/12/11 08:36:09;;;;;;;;;30.67;25.33;;;;;0.98;67.28;100735.34;5055930;28;45446;-71
2022/12/11 08:38:35;;;;;;;;;30.00;25.67;;;;;0.87;67.55;100731.91;5056283;28;45555;-75
2022/12/11 08:41:18;;;;;;;;;38.67;28.00;;;;;0.77;68.10;100732.84;5055857;28;46604;-73
2022/12/11 08:43:45;;;;;;;;;29.67;26.67;;;;;0.74;68.01;100736.41;5034730;28;45421;-71
2022/12/11 08:46:11;;;;;;;;;27.67;27.67;;;;;0.80;67.93;100735.47;5053613;28;45564;-75
2022/12/11 08:48:39;;;;;;;;;41.00;31.00;;;;;0.78;67.40;100737.25;5055002;28;45536;-74
2022/12/11 08:51:08;;;;;;;;;32.67;26.33;;;;;0.67;67.82;100716.22;5053976;28;46084;-73
2022/12/11 08:53:34;;;;;;;;;30.00;26.00;;;;;0.86;67.60;100732.78;5054061;28;45418;-73
2022/12/11 08:56:08;;;;;;;;;25.00;25.00;;;;;0.89;67.12;100732.78;5056084;28;45350;-74
2022/12/11 08:58:34;;;;;;;;;29.67;26.33;;;;;0.91;67.06;100731.03;5037590;28;47264;-73
2022/12/11 09:01:04;;;;;;;;;34.00;26.33;;;;;0.85;68.03;100735.47;5055885;28;47030;-71
2022/12/11 09:03:30;;;;;;;;;32.00;31.00;;;;;0.60;68.17;100696.03;5055791;28;45344;-75
2022/12/11 09:05:55;;;;;;;;;42.33;32.00;;;;;0.70;68.14;100715.31;5056238;28;45261;-75
2022/12/11 09:08:20;;;;;;;;;36.67;28.67;;;;;0.78;68.45;100718.78;5055121;28;45477;-74
2022/12/11 09:10:46;;;;;;;;;39.33;32.33;;;;;0.85;68.21;100728.41;5055200;28;46022;-75
2022/12/11 09:13:11;;;;;;;;;37.33;31.67;;;;;0.85;68.06;100715.19;5053419;28;45372;-75
2022/12/11 09:15:40;;;;;;;;;38.33;30.00;;;;;0.99;67.88;100723.03;5056243;28;45424;-73
2022/12/11 09:18:05;;;;;;;;;34.00;31.00;;;;;1.00;67.84;100712.47;5055694;28;45246;-77
2022/12/11 09:20:30;;;;;;;;;38.00;30.33;;;;;0.99;67.23;100708.09;5037473;28;47993;-77
2022/12/11 09:22:56;;;;;;;;;38.00;32.67;;;;;1.17;67.11;100728.19;5055490;28;45332;-73
2022/12/11 09:25:21;;;;;;;;;30.67;29.67;;;;;1.20;66.84;100728.13;5055023;28;45265;-70
2022/12/11 09:27:46;;;;;;;;;27.00;23.00;;;;;1.14;66.95;100731.72;5055316;28;45476;-74
2022/12/11 09:30:12;;;;;;;;;34.33;30.00;;;;;1.23;66.51;100743.97;5055784;28;46284;-72
2022/12/11 09:32:38;;;;;;;;;27.33;26.33;;;;;1.30;66.24;100736.88;5057761;28;45483;-69
2022/12/11 09:35:04;;;;;;;;;23.33;23.33;;;;;1.13;65.68;100695.63;5051865;28;45455;-74
2022/12/11 09:37:32;;;;;;;;;22.33;20.33;;;;;1.43;65.71;100744.69;5054960;28;46555;-73
2022/12/11 09:39:57;;;;;;;;;37.67;27.33;;;;;1.20;64.88;100711.41;5055472;28;45267;-78
2022/12/11 09:42:29;;;;;;;;;27.33;20.00;;;;;1.38;65.20;100737.69;5054989;28;45145;-73
2022/12/11 09:45:00;;;;;;;;;30.00;27.00;;;;;1.33;65.04;100737.72;5052685;28;45555;-75
2022/12/11 09:47:42;;;;;;;;;30.00;23.67;;;;;1.21;65.38;100726.38;5046402;28;45660;-74
2022/12/11 09:50:07;;;;;;;;;34.00;24.33;;;;;1.14;65.62;100755.47;5055286;28;46527;-75
2022/12/11 09:52:39;;;;;;;;;27.67;23.00;;;;;1.08;65.37;100752.00;5055097;28;45369;-76
2022/12/11 09:55:16;;;;;;;;;30.33;21.00;;;;;1.04;65.54;100735.31;5054711;28;44917;-74
2022/12/11 09:58:09;;;;;;;;;35.00;29.33;;;;;1.15;65.38;100748.44;5049407;28;45437;-72
2022/12/11 10:00:48;;;;;;;;;38.67;33.00;;;;;1.18;65.97;100742.25;5055403;28;46677;-72
2022/12/11 10:03:35;;;;;;;;;28.00;24.00;;;;;1.28;65.16;100754.47;5055428;28;45648;-72
2022/12/11 10:06:15;;;;;;;;;31.33;28.33;;;;;1.28;65.11;100747.44;5056061;28;45464;-75
2022/12/11 10:09:02;;;;;;;;;17.00;14.00;;;;;1.38;65.31;100746.47;5057266;28;45578;-76
2022/12/11 10:11:53;;;;;;;;;23.33;23.00;;;;;1.46;65.58;100759.63;5057581;28;45492;-74
2022/12/11 10:14:34;;;;;;;;;29.00;25.67;;;;;1.48;65.52;100756.06;5057720;28;45540;-75
2022/12/11 10:17:06;;;;;;;;;32.67;24.67;;;;;1.38;65.16;100742.97;5056016;28;45342;-74
2022/12/11 10:19:33;;;;;;;;;39.33;27.67;;;;;1.41;65.20;100740.31;5057864;28;45383;-74
2022/12/11 10:22:01;;;;;;;;;25.00;20.33;;;;;1.50;65.61;100740.22;5055192;28;45474;-71
2022/12/11 10:24:34;;;;;;;;;30.33;25.33;;;;;1.62;65.27;100742.72;5054459;28;45468;-72
2022/12/11 10:27:12;;;;;;;;;19.00;17.00;;;;;1.67;64.10;100718.91;5047472;28;45637;-74
2022/12/11 10:29:38;;;;;;;;;33.00;26.00;;;;;1.86;63.64;100733.69;5049988;28;45453;-76
2022/12/11 10:32:10;;;;;;;;;28.00;26.33;;;;;1.89;62.73;100726.59;5055299;28;45593;-74
2022/12/11 10:34:41;;;;;;;;;27.67;21.67;;;;;1.79;63.14;100722.28;5052681;28;45206;-74
2022/12/11 10:37:06;;;;;;;;;26.00;21.33;;;;;1.78;63.68;100724.97;5053814;28;45509;-77
2022/12/11 10:39:31;;;;;;;;;30.00;24.67;;;;;1.80;62.58;100720.53;5054093;28;45312;-74
2022/12/11 10:41:57;;;;;;;;;32.33;25.67;;;;;1.78;63.05;100728.50;5053919;28;45401;-73
2022/12/11 10:44:28;;;;;;;;;28.67;23.00;;;;;1.78;62.57;100725.84;5054157;28;45393;-74
2022/12/11 10:47:19;;;;;;;;;18.00;18.00;;;;;1.71;63.30;100715.34;5049106;28;45437;-74
2022/12/11 10:49:58;;;;;;;;;23.75;18.75;;;;;1.70;63.11;100700.41;5042632;28;46515;-75
2022/12/11 10:52:33;;;;;;;;;25.00;21.00;;;;;1.84;62.93;100714.34;5053855;28;45456;-73
2022/12/11 10:55:03;;;;;;;;;23.00;19.67;;;;;1.86;62.65;100710.78;5054258;28;45363;-74
2022/12/11 10:57:32;;;;;;;;;27.33;21.00;;;;;1.95;62.88;100714.22;5053907;28;45498;-73
2022/12/11 10:59:59;;;;;;;;;26.33;25.00;;;;;1.79;62.81;100674.72;5054052;28;45321;-73
2022/12/11 11:02:29;;;;;;;;;30.33;25.00;;;;;2.08;63.21;100702.59;5050988;28;46745;-74
2022/12/11 11:04:58;;;;;;;;;37.00;28.67;;;;;2.16;62.90;100695.44;5053641;28;45413;-73
2022/12/11 11:07:25;;;;;;;;;31.67;28.00;;;;;2.30;62.63;100701.41;5054002;28;45379;-76
2022/12/11 11:10:13;;;;;;;;;32.00;29.33;;;;;2.28;62.14;100671.50;5053793;28;45539;-72
2022/12/11 11:12:42;;;;;;;;;29.67;22.33;;;;;2.47;61.46;100693.25;5053552;28;45203;-74
2022/12/11 11:15:15;;;;;;;;;29.00;27.00;;;;;2.52;61.66;100692.31;5052691;28;45289;-73
2022/12/11 11:17:47;;;;;;;;;28.75;26.75;;;;;2.52;61.08;100678.22;5054219;28;45246;-75
2022/12/11 11:20:22;;;;;;;;;35.67;29.33;;;;;2.61;61.03;100681.59;5053637;28;45360;-73
2022/12/11 11:22:54;;;;;;;;;29.25;27.75;;;;;2.57;60.94;100655.19;5050534;28;45495;-73
2022/12/11 11:25:25;;;;;;;;;27.50;25.00;;;;;2.73;60.57;100680.53;5045132;28;45565;-74
2022/12/11 11:27:57;;;;;;;;;28.00;26.25;;;;;2.76;60.79;100685.78;5053648;28;45566;-71
2022/12/11 11:30:27;;;;;;;;;32.00;27.67;;;;;2.69;60.22;100670.91;5054963;28;45351;-71
2022/12/11 11:33:01;;;;;;;;;40.50;32.50;;;;;2.79;60.30;100687.53;5055002;28;46076;-74
2022/12/11 11:35:28;;;;;;;;;34.67;32.00;;;;;2.88;60.39;100676.78;5054482;28;45509;-73
2022/12/11 11:38:08;;;;;;;;;29.67;29.00;;;;;2.88;59.65;100663.56;5057412;28;45407;-73
2022/12/11 11:40:45;;;;;;;;;34.50;31.25;;;;;2.86;59.75;100668.88;5057113;28;45357;-73
2022/12/11 11:43:21;;;;;;;;;33.33;30.67;;;;;2.93;59.83;100669.66;5043381;28;46275;-77
2022/12/11 11:45:58;;;;;;;;;32.00;29.00;;;;;3.01;59.70;100675.69;5057124;28;45384;-72
2022/12/11 11:48:43;;;;;;;;;38.50;33.50;;;;;2.98;59.64;100675.72;5057449;28;45354;-74
2022/12/11 11:51:15;;;;;;;;;35.00;28.33;;;;;2.80;59.61;100645.16;5056963;28;45421;-73
2022/12/11 11:53:42;;;;;;;;;31.00;26.25;;;;;2.86;59.73;100675.94;5056832;28;45284;-73
2022/12/11 11:56:27;;;;;;;;;35.75;29.25;;;;;2.83;60.12;100676.84;5057320;28;45580;-69
2022/12/11 11:59:01;;;;;;;;;42.67;36.33;;;;;2.81;59.89;100676.00;5056834;28;45565;-73
2022/12/11 12:01:26;;;;;;;;;38.00;31.00;;;;;2.84;60.32;100670.66;5057392;28;45228;-72
2022/12/11 12:03:52;;;;;;;;;36.33;34.00;;;;;2.87;59.73;100659.16;5057030;28;45851;-71
2022/12/11 12:06:38;;;;;;;;;31.67;29.67;;;;;2.81;59.90;100669.81;5057192;28;45449;-73
2022/12/11 12:09:15;;;;;;;;;28.25;26.00;;;;;2.67;60.21;100657.69;5054026;28;45490;-74
2022/12/11 12:11:48;;;;;;;;;33.67;30.33;;;;;2.60;60.51;100652.50;5038267;28;45356;-74
2022/12/11 12:14:23;;;;;;;;;29.25;29.25;;;;;2.58;60.87;100641.94;5039974;28;46667;-72
2022/12/11 12:16:57;;;;;;;;;39.67;38.67;;;;;2.61;60.28;100652.50;5056959;28;45454;-72
2022/12/11 12:19:41;;;;;;;;;31.67;31.00;;;;;2.60;60.71;100647.22;5057143;28;45529;-71
2022/12/11 12:22:40;;;;;;;;;35.00;30.67;;;;;2.50;60.31;100651.78;5056446;28;45695;-74
2022/12/11 12:25:15;;;;;;;;;38.00;29.00;;;;;2.57;60.52;100653.44;5038063;28;46336;-74
2022/12/11 12:27:49;;;;;;;;;38.67;32.33;;;;;2.54;60.59;100649.97;5056255;28;45378;-72
2022/12/11 12:30:17;;;;;;;;;38.00;35.33;;;;;2.57;61.15;100637.53;5056700;28;45336;-74
2022/12/11 12:32:59;;;;;;;;;39.00;32.00;;;;;2.64;60.99;100644.50;5058701;28;45296;-75
2022/12/11 12:35:36;;;;;;;;;37.33;35.33;;;;;2.56;61.03;100634.91;5056576;28;45475;-70
2022/12/11 12:38:08;;;;;;;;;41.33;38.33;;;;;2.54;61.21;100637.63;5056239;28;45459;-69
2022/12/11 12:40:46;;;;;;;;;35.33;30.33;;;;;2.56;61.06;100626.97;5056873;28;45378;-72
2022/12/11 12:43:33;;;;;;;;;47.33;36.33;;;;;2.59;61.00;100622.53;5056444;28;45317;-71
2022/12/11 12:46:07;;;;;;;;;36.33;30.67;;;;;2.53;61.41;100622.63;5056482;28;45264;-73
2022/12/11 12:48:33;;;;;;;;;36.67;33.00;;;;;2.45;61.82;100607.75;5055586;28;45269;-71
2022/12/11 12:50:59;;;;;;;;;38.00;35.33;;;;;2.59;61.30;100603.13;5055272;28;45378;-70
2022/12/11 12:53:31;;;;;;;;;39.67;33.67;;;;;2.78;61.00;100601.94;5058252;28;45298;-70
2022/12/11 12:55:57;;;;;;;;;35.67;31.00;;;;;2.95;60.71;100605.19;5057141;28;45458;-72
2022/12/11 12:58:30;;;;;;;;;45.00;33.50;;;;;2.98;60.19;100601.59;5056107;28;45224;-71
2022/12/11 13:01:09;;;;;;;;;45.33;35.67;;;;;2.96;59.51;100590.16;5056584;28;45330;-71
2022/12/11 13:03:49;;;;;;;;;28.25;25.25;;;;;2.94;59.60;100591.97;5057140;28;45340;-71
2022/12/11 13:06:15;;;;;;;;;36.25;32.25;;;;;2.86;60.10;100581.50;5056621;28;46043;-72
2022/12/11 13:08:49;;;;;;;;;29.00;26.00;;;;;2.81;59.67;100578.03;5057293;28;45430;-74
2022/12/11 13:11:17;;;;;;;;;37.75;32.25;;;;;2.86;60.30;100585.94;5038207;28;45375;-71
2022/12/11 13:13:49;;;;;;;;;41.00;33.00;;;;;2.91;60.16;100590.22;5054789;28;45319;-71
2022/12/11 13:16:14;;;;;;;;;35.50;29.50;;;;;2.97;60.00;100586.63;5056638;28;45394;-69
2022/12/11 13:18:41;;;;;;;;;31.50;31.00;;;;;2.99;59.63;100590.09;5038066;28;45340;-71
2022/12/11 13:21:28;;;;;;;;;41.00;32.50;;;;;2.97;59.61;100586.63;5056170;28;45443;-69
2022/12/11 13:23:54;;;;;;;;;43.67;34.00;;;;;3.01;59.70;100581.22;5055603;28;45540;-69
2022/12/11 13:26:47;;;;;;;;;32.00;29.33;;;;;3.09;59.59;100578.44;5055251;28;45485;-73
2022/12/11 13:29:37;;;;;;;;;40.50;29.50;;;;;3.17;59.36;100570.34;5052187;28;45380;-70
2022/12/11 13:32:08;;;;;;;;;40.75;30.25;;;;;3.23;59.08;100575.56;5057283;28;45534;-73
2022/12/11 13:34:39;;;;;;;;;36.33;31.33;;;;;3.21;58.17;100580.00;5055447;28;45327;-71
2022/12/11 13:37:19;;;;;;;;;33.00;25.75;;;;;3.19;58.50;100571.19;5055441;28;45443;-71
2022/12/11 13:39:46;;;;;;;;;36.67;28.67;;;;;3.15;58.38;100570.38;5055366;28;45292;-71
2022/12/11 13:42:32;;;;;;;;;33.75;27.75;;;;;3.16;58.76;100572.13;5055510;28;45324;-73
2022/12/11 13:44:59;;;;;;;;;29.75;25.50;;;;;3.14;59.13;100567.78;5055731;28;45454;-73
2022/12/11 13:47:25;;;;;;;;;37.75;28.25;;;;;3.14;58.86;100558.06;5054907;28;46097;-75
2022/12/11 13:50:14;;;;;;;;;42.50;36.00;;;;;3.10;59.09;100547.53;5055231;28;45329;-70
2022/12/11 13:52:39;;;;;;;;;34.00;31.25;;;;;3.10;59.08;100555.47;5055245;28;45410;-75
2022/12/11 13:55:20;;;;;;;;;31.67;30.33;;;;;3.17;59.25;100567.72;5055156;28;45564;-73
2022/12/11 13:57:45;;;;;;;;;44.00;35.00;;;;;3.14;59.03;100551.88;5055097;28;46130;-73
2022/12/11 14:00:23;;;;;;;;;34.33;32.33;;;;;3.24;59.56;100562.25;5053559;28;45315;-73
2022/12/11 14:02:53;;;;;;;;;29.00;28.50;;;;;3.27;59.14;100550.75;5055362;28;45247;-75
2022/12/11 14:05:21;;;;;;;;;38.00;34.00;;;;;3.28;58.66;100547.19;5054903;28;45382;-74
2022/12/11 14:07:49;;;;;;;;;37.50;33.00;;;;;3.06;58.65;100537.91;5055113;28;45314;-78
2022/12/11 14:10:16;;;;;;;;;35.50;34.00;;;;;3.20;59.15;100565.88;5055061;28;45485;-74
2022/12/11 14:12:59;;;;;;;;;44.00;36.33;;;;;3.32;58.64;100559.47;5037059;28;45383;-74
2022/12/11 14:15:27;;;;;;;;;43.50;36.25;;;;;3.65;58.46;100553.50;5033264;28;45552;-72
2022/12/11 14:17:53;;;;;;;;;33.25;27.50;;;;;4.04;57.67;100546.47;5034593;28;45265;-73
2022/12/11 14:20:26;;;;;;;;;44.25;35.00;;;;;4.51;56.23;100547.13;5034703;28;45518;-75
2022/12/11 14:23:03;;;;;;;;;44.75;36.25;;;;;4.98;55.29;100543.28;5034896;28;45166;-74
2022/12/11 14:25:29;;;;;;;;;44.00;34.00;;;;;5.34;54.69;100530.78;5034685;28;45501;-75
2022/12/11 14:27:55;;;;;;;;;47.00;39.00;;;;;5.67;53.55;100539.59;5034184;28;46046;-74
2022/12/11 14:30:21;;;;;;;;;42.00;36.75;;;;;5.95;53.05;100542.34;5034773;28;45432;-76
2022/12/11 14:32:48;;;;;;;;;43.50;36.25;;;;;6.13;52.49;100516.94;5052397;28;45363;-73
2022/12/11 14:35:25;;;;;;;;;40.25;32.25;;;;;6.49;51.49;100530.88;5053117;28;45450;-73
2022/12/11 14:37:52;;;;;;;;;41.50;37.50;;;;;6.67;50.58;100516.94;5053266;28;45643;-74
2022/12/11 14:40:21;;;;;;;;;35.25;34.00;;;;;6.84;50.44;100523.44;5053111;28;45304;-72
2022/12/11 14:42:53;;;;;;;;;35.50;30.75;;;;;6.67;50.25;100515.16;5035210;28;45541;-75
2022/12/11 14:45:27;;;;;;;;;38.50;38.00;;;;;6.59;51.21;100525.19;5053157;28;45560;-74
2022/12/11 14:47:53;;;;;;;;;35.00;33.50;;;;;6.23;51.39;100481.13;5052771;28;45261;-74
2022/12/11 14:50:33;;;;;;;;;41.00;36.50;;;;;6.28;50.98;100509.34;5053075;28;45430;-74
2022/12/11 14:53:06;;;;;;;;;39.00;34.75;;;;;6.12;51.81;100520.53;5053390;28;45259;-75
2022/12/11 14:55:34;;;;;;;;;45.75;41.50;;;;;5.84;52.41;100525.78;5035194;28;45347;-69
2022/12/11 14:58:14;;;;;;;;;36.75;32.25;;;;;5.70;52.62;100524.41;5052357;28;47188;-72
2022/12/11 15:00:39;;;;;;;;;41.75;36.25;;;;;5.47;53.76;100513.56;5052699;28;45517;-71
2022/12/11 15:03:20;;;;;;;;;39.25;32.25;;;;;5.29;53.78;100514.94;5052816;28;45522;-70
2022/12/11 15:05:56;;;;;;;;;35.25;33.25;;;;;5.02;53.73;100502.41;5052950;28;45403;-75
2022/12/11 15:08:29;;;;;;;;;32.25;29.50;;;;;4.97;54.12;100530.03;5052066;28;45842;-74
2022/12/11 15:11:00;;;;;;;;;40.00;35.25;;;;;4.78;54.45;100524.31;5054272;28;45488;-71
2022/12/11 15:13:26;;;;;;;;;36.00;36.00;;;;;4.66;54.30;100532.63;5054635;28;45545;-71
2022/12/11 15:15:55;;;;;;;;;50.00;38.50;;;;;4.53;55.37;100537.34;5054046;28;45463;-74
2022/12/11 15:18:22;;;;;;;;;46.00;38.00;;;;;4.33;55.85;100535.19;5056161;28;46400;-71
2022/12/11 15:20:55;;;;;;;;;53.50;39.75;;;;;4.23;56.22;100536.31;5052217;28;45457;-70
2022/12/11 15:23:20;;;;;;;;;46.25;38.00;;;;;4.14;56.59;100528.56;5056230;28;45373;-70
2022/12/11 15:25:51;;;;;;;;;39.50;37.00;;;;;4.10;57.67;100541.00;5056118;28;45343;-73
2022/12/11 15:28:26;;;;;;;;;41.00;35.25;;;;;4.09;58.10;100536.59;5037868;28;48601;-70
2022/12/11 15:30:59;;;;;;;;;47.33;38.33;;;;;4.08;56.81;100531.38;5057396;28;45355;-69
2022/12/11 15:33:26;;;;;;;;;38.25;36.00;;;;;3.93;57.49;100519.28;4990999;28;1140262;-71
2022/12/11 15:35:58;;;;;;;;;39.00;34.00;;;;;3.94;57.53;100534.31;5055341;28;45521;-72
2022/12/11 15:38:29;;;;;;;;;50.50;39.75;;;;;3.90;57.28;100529.13;5044863;28;46201;-68
2022/12/11 15:40:56;;;;;;;;;45.50;40.25;;;;;3.79;57.50;100526.69;5056898;28;45209;-68
2022/12/11 15:43:21;;;;;;;;;46.00;34.33;;;;;3.77;58.00;100526.72;5054288;28;45543;-69
2022/12/11 15:45:46;;;;;;;;;44.33;40.33;;;;;3.70;57.83;100519.81;5035154;28;45225;-70
2022/12/11 15:48:12;;;;;;;;;35.67;27.67;;;;;3.75;57.66;100531.19;5056987;28;45251;-68
2022/12/11 15:50:38;;;;;;;;;49.67;40.00;;;;;3.65;57.82;100524.34;5038890;28;46480;-68
2022/12/11 15:53:04;;;;;;;;;45.00;40.33;;;;;3.61;58.21;100527.97;5057313;28;45415;-70
2022/12/11 15:55:33;;;;;;;;;38.25;28.50;;;;;3.56;58.43;100527.19;5038572;28;45388;-68
2022/12/11 15:58:02;;;;;;;;;48.00;40.33;;;;;3.50;58.20;100519.34;5034107;28;46069;-66
2022/12/11 16:00:28;;;;;;;;;53.00;42.00;;;;;3.48;58.76;100521.19;5054937;28;45351;-67
2022/12/11 16:02:54;;;;;;;;;47.67;40.00;;;;;3.47;58.82;100531.81;5045157;28;45656;-71
2022/12/11 16:05:20;;;;;;;;;53.67;43.67;;;;;3.44;58.81;100527.44;5051957;28;45902;-69
2022/12/11 16:07:46;;;;;;;;;45.33;42.00;;;;;3.35;58.38;100532.91;5054988;28;45495;-69
2022/12/11 16:10:15;;;;;;;;;47.67;40.33;;;;;3.28;58.78;100536.59;5056450;28;45442;-68
2022/12/11 16:12:41;;;;;;;;;41.67;39.33;;;;;3.18;59.34;100521.78;5057958;28;45753;-67
2022/12/11 16:15:07;;;;;;;;;53.00;45.00;;;;;3.21;59.39;100538.50;5056651;28;45478;-72
2022/12/11 16:17:32;;;;;;;;;53.00;43.33;;;;;3.12;59.43;100524.56;5057804;28;46696;-71
2022/12/11 16:19:58;;;;;;;;;45.00;40.33;;;;;3.13;59.59;100528.94;5054933;28;45311;-70
2022/12/11 16:22:23;;;;;;;;;42.33;37.67;;;;;3.16;59.93;100535.03;5055329;28;45522;-71
2022/12/11 16:24:53;;;;;;;;;42.00;35.67;;;;;3.14;59.86;100533.34;5056237;28;46051;-71
2022/12/11 16:27:19;;;;;;;;;46.00;42.00;;;;;3.12;59.80;100530.72;5056220;28;45346;-71
2022/12/11 16:29:45;;;;;;;;;51.67;42.67;;;;;2.91;60.40;100501.97;5055390;28;45511;-71
2022/12/11 16:32:10;;;;;;;;;43.33;37.33;;;;;2.90;60.67;100506.41;5057002;28;45446;-67